Time;durP1;ratioP1;P1;durP2;ratioP2;P2;SDS_P1;SDS_P2;PMS_P1;PMS_P2;Temp;Humidity;BMP_temperature;BMP_pressure;BME280_temperature;BME280_humidity;BME280_pressure;Samples;Min_cycle;Max_cycle;Signal;HPM_P1;HPM_P2
2022/01/28 00:04:47;;;;;;;;;40.75;33.25;;;;;8.70;75.88;102855.00;5115940;27;45537;-75
2022/01/28 00:07:13;;;;;;;;;45.50;34.00;;;;;9.25;75.76;102936.59;5114391;27;45518;-69
2022/01/28 00:09:39;;;;;;;;;38.00;32.75;;;;;9.02;75.54;102883.38;5100393;27;45522;-69
2022/01/28 00:12:08;;;;;;;;;36.25;32.25;;;;;8.83;75.80;102863.38;5119205;27;45444;-72
2022/01/28 00:38:54;;;;;;;;;39.25;31.00;;;;;9.15;75.88;102931.81;5115356;27;45927;-70
2022/01/28 00:41:19;;;;;;;;;39.50;31.00;;;;;9.32;75.95;102956.97;5118708;27;45381;-77
2022/01/28 00:43:45;;;;;;;;;43.25;33.50;;;;;9.33;75.72;102975.34;5114893;27;45544;-76
2022/01/28 00:46:11;;;;;;;;;37.00;28.75;;;;;9.21;75.71;102956.53;5115299;27;45501;-72
2022/01/28 00:48:37;;;;;;;;;39.25;32.00;;;;;9.34;75.91;102976.22;5114982;27;45487;-73
2022/01/28 00:51:03;;;;;;;;;41.00;33.00;;;;;9.28;75.94;102965.53;5114996;27;45882;-74
2022/01/28 00:53:30;;;;;;;;;41.50;33.75;;;;;9.29;75.82;102962.06;5096892;27;45553;-75
2022/01/28 00:55:59;;;;;;;;;36.75;30.50;;;;;9.33;75.96;102975.34;5117437;27;45389;-77
2022/01/28 00:58:25;;;;;;;;;34.50;30.25;;;;;8.96;75.92;102906.59;5114826;27;45442;-77
2022/01/28 01:00:51;;;;;;;;;38.75;32.50;;;;;9.21;75.78;102966.97;5095546;27;45448;-72
2022/01/28 01:03:17;;;;;;;;;41.50;34.00;;;;;9.22;75.62;102955.69;5096761;27;45667;-76
2022/01/28 01:05:43;;;;;;;;;40.50;32.75;;;;;9.36;76.06;102984.16;5098712;27;45492;-72
2022/01/28 01:08:09;;;;;;;;;36.25;32.50;;;;;9.37;75.69;102996.38;5095860;27;46134;-69
2022/01/28 01:10:36;;;;;;;;;41.50;33.00;;;;;9.17;75.76;102953.72;5095639;27;45371;-74
2022/01/28 01:13:02;;;;;;;;;40.50;32.00;;;;;9.36;75.78;102987.66;5096424;27;45520;-70
2022/01/28 01:15:34;;;;;;;;;39.50;32.00;;;;;9.08;76.10;102925.44;5099399;27;45341;-73
2022/01/28 01:23:08;;;;;;;;;36.50;31.25;;;;;9.09;75.79;102935.09;5119278;27;45454;-68
2022/01/28 01:25:45;;;;;;;;;40.50;32.50;;;;;9.37;75.80;102980.69;5103344;27;45810;-71
2022/01/28 01:28:18;;;;;;;;;40.00;32.25;;;;;9.48;75.70;102989.91;5102545;27;45478;-73
2022/01/28 01:30:45;;;;;;;;;35.00;30.50;;;;;9.34;75.12;102961.44;5100470;27;45746;-69
2022/01/28 01:33:11;;;;;;;;;45.75;34.00;;;;;9.23;75.43;102944.41;5080280;27;45389;-69
2022/01/28 01:35:38;;;;;;;;;45.50;34.25;;;;;9.25;75.38;102950.56;5098198;27;45491;-73
2022/01/28 01:38:06;;;;;;;;;36.50;29.75;;;;;9.51;75.34;103005.72;5099544;27;46064;-73
2022/01/28 01:40:52;;;;;;;;;41.25;32.75;;;;;9.58;74.90;103007.78;5101674;27;45395;-71
2022/01/28 01:54:01;;;;;;;;;44.75;34.00;;;;;9.38;74.77;102983.38;5097232;27;45601;-69
2022/01/28 01:56:28;;;;;;;;;44.25;36.00;;;;;9.12;74.60;102956.13;5098023;27;45687;-78
2022/01/28 01:58:57;;;;;;;;;46.00;35.25;;;;;9.51;75.14;103029.25;5097540;27;46429;-76
2022/01/28 02:01:23;;;;;;;;;40.25;33.00;;;;;9.19;74.72;102983.44;5098208;27;45662;-78
2022/01/28 02:03:50;;;;;;;;;43.50;36.25;;;;;9.46;74.95;103028.19;5108198;27;45467;-68
2022/01/28 02:06:20;;;;;;;;;44.75;35.75;;;;;8.57;74.98;102884.03;5102871;27;45523;-68
2022/01/28 02:08:46;;;;;;;;;46.75;36.75;;;;;9.46;74.75;103042.16;5121939;27;45428;-68
2022/01/28 02:11:12;;;;;;;;;41.75;34.00;;;;;9.25;74.92;103008.09;5122165;27;45477;-68
2022/01/28 02:13:40;;;;;;;;;46.00;36.25;;;;;9.33;74.68;103027.66;5120027;27;45370;-69
2022/01/28 02:16:07;;;;;;;;;48.50;37.00;;;;;9.27;75.04;103014.28;5099338;27;45586;-70
2022/01/28 02:18:33;;;;;;;;;48.50;37.50;;;;;8.95;74.65;102971.06;5117366;27;45691;-72
2022/01/28 02:21:06;;;;;;;;;48.00;38.50;;;;;9.01;74.76;102992.22;5117458;27;45464;-70
2022/01/28 02:23:33;;;;;;;;;44.25;35.25;;;;;9.24;74.73;103032.47;5118197;27;45492;-70
2022/01/28 02:26:00;;;;;;;;;44.75;36.75;;;;;8.72;74.72;102936.06;5115601;27;45396;-75
2022/01/28 02:28:27;;;;;;;;;41.25;32.00;;;;;8.69;74.51;102942.03;5108318;27;46397;-71
2022/01/28 02:30:53;;;;;;;;;38.75;32.25;;;;;8.84;74.61;102973.19;5104480;27;45481;-76
2022/01/28 02:33:22;;;;;;;;;39.25;30.25;;;;;9.25;74.61;103052.56;5080236;27;45761;-72
2022/01/28 02:35:49;;;;;;;;;41.25;34.00;;;;;9.21;74.91;103052.38;5097733;27;45545;-75
2022/01/28 02:38:19;;;;;;;;;44.25;33.75;;;;;9.13;74.71;103046.78;5096425;27;46487;-76
2022/01/28 02:40:49;;;;;;;;;39.25;31.25;;;;;8.79;74.56;103002.56;5077957;27;45849;-71
2022/01/28 02:44:05;;;;;;;;;40.25;33.00;;;;;8.85;74.50;103013.28;5096481;27;45484;-70
2022/01/28 02:46:11;;;;;;;;;48.00;33.75;;;;;8.96;74.49;103048.63;5084967;27;45631;-75
2022/01/28 02:48:40;;;;;;;;;37.00;33.75;;;;;9.05;74.36;103072.59;5096133;27;46223;-69
2022/01/28 02:51:13;;;;;;;;;38.50;33.50;;;;;8.83;74.24;103033.25;5096475;27;45462;-68
2022/01/28 02:53:43;;;;;;;;;48.25;35.50;;;;;8.96;74.40;103046.03;5096556;27;45355;-70
2022/01/28 02:56:18;;;;;;;;;44.25;34.25;;;;;8.97;74.31;103054.75;5096444;27;46509;-69
2022/01/28 02:58:45;;;;;;;;;40.75;32.50;;;;;8.77;74.44;103030.34;5096010;27;45621;-68
2022/01/28 03:01:13;;;;;;;;;45.75;34.00;;;;;8.44;74.65;102988.75;5096266;27;45378;-69
2022/01/28 03:03:43;;;;;;;;;35.00;32.00;;;;;8.87;74.71;103064.81;5077470;27;45593;-71
2022/01/28 03:06:10;;;;;;;;;33.00;26.50;;;;;8.86;74.77;103052.56;5096563;27;45955;-72
2022/01/28 03:08:36;;;;;;;;;30.75;30.50;;;;;8.72;74.64;103016.16;5099623;27;46085;-73
2022/01/28 03:11:29;;;;;;;;;39.00;31.75;;;;;8.87;74.44;103045.59;5095932;27;45352;-69
2022/01/28 03:17:00;;;;;;;;;37.25;30.50;;;;;8.90;74.54;103043.16;5096740;27;45568;-69
2022/01/28 03:19:29;;;;;;;;;39.75;32.25;;;;;8.70;74.64;103008.25;5095963;27;45469;-74
2022/01/28 03:21:56;;;;;;;;;41.50;31.00;;;;;8.68;74.73;103018.66;5096393;27;45396;-74
2022/01/28 03:24:24;;;;;;;;;43.00;33.75;;;;;8.55;74.97;103007.56;5097091;27;45383;-77
2022/01/28 03:26:53;;;;;;;;;35.50;31.00;;;;;8.55;74.86;103002.31;5078422;27;45379;-73
2022/01/28 03:29:22;;;;;;;;;43.25;34.00;;;;;8.73;74.90;103033.63;5096150;27;46230;-77
2022/01/28 03:31:47;;;;;;;;;38.25;33.00;;;;;8.34;74.74;102990.00;5077156;27;45551;-73
2022/01/28 03:34:13;;;;;;;;;52.25;40.50;;;;;8.05;74.98;102945.16;5096412;27;45346;-72
2022/01/28 03:36:39;;;;;;;;;52.75;42.25;;;;;8.51;75.35;103044.78;5091235;27;45683;-69
2022/01/28 03:39:08;;;;;;;;;54.50;43.25;;;;;8.39;75.38;103024.16;5116107;27;46187;-73
2022/01/28 03:41:33;;;;;;;;;66.25;52.00;;;;;8.28;75.71;103026.25;5100242;27;45726;-71
2022/01/28 03:44:00;;;;;;;;;60.50;48.00;;;;;7.75;75.70;102949.78;5120392;27;45464;-76
2022/01/28 03:46:27;;;;;;;;;58.25;47.25;;;;;8.18;76.68;103055.34;5101458;27;45451;-72
2022/01/28 03:48:54;;;;;;;;;67.75;49.50;;;;;7.39;76.77;102931.47;5116244;27;46106;-75
2022/01/28 03:51:21;;;;;;;;;42.50;34.00;;;;;7.76;76.83;103002.81;5116105;27;45489;-73
2022/01/28 03:53:48;;;;;;;;;65.25;49.00;;;;;7.92;76.79;103039.31;5118193;27;45417;-75
2022/01/28 03:56:13;;;;;;;;;66.75;48.25;;;;;7.95;76.96;103062.97;5118203;27;45351;-75
2022/01/28 03:58:43;;;;;;;;;63.00;49.50;;;;;7.75;76.86;103024.53;5114822;27;45993;-74
2022/01/28 04:01:16;;;;;;;;;62.25;47.25;;;;;8.07;76.49;103078.34;5115477;27;45363;-76
2022/01/28 04:03:49;;;;;;;;;60.00;47.00;;;;;8.11;76.72;103084.59;5102692;27;45545;-85
2022/01/28 04:11:46;;;;;;;;;61.75;43.75;;;;;8.07;76.22;103074.00;5119895;27;45952;-79
2022/01/28 04:14:20;;;;;;;;;62.50;47.75;;;;;7.98;76.25;103051.78;5115656;27;45794;-75
2022/01/28 04:19:30;;;;;;;;;63.25;48.75;;;;;8.21;76.27;103087.75;5119751;27;45502;-77
2022/01/28 04:21:56;;;;;;;;;60.25;47.00;;;;;8.26;75.87;103087.97;5101397;27;45514;-80
2022/01/28 04:24:33;;;;;;;;;59.00;45.00;;;;;8.23;76.84;103088.72;5104166;27;45360;-76
2022/01/28 04:26:59;;;;;;;;;59.75;45.50;;;;;7.73;76.53;103007.91;5093914;27;45686;-67
2022/01/28 04:29:25;;;;;;;;;64.50;49.25;;;;;8.16;76.67;103083.09;5094415;27;45306;-69
2022/01/28 04:31:51;;;;;;;;;64.00;50.75;;;;;8.00;76.57;103066.69;5097523;27;45546;-69
2022/01/28 04:34:21;;;;;;;;;60.25;45.50;;;;;8.18;76.66;103099.75;5094846;27;45615;-70
2022/01/28 04:36:59;;;;;;;;;65.00;48.25;;;;;8.02;76.17;103061.53;5095925;27;45474;-74
2022/01/28 04:47:37;;;;;;;;;62.75;48.50;;;;;8.13;76.72;103091.69;5113186;27;45546;-72
2022/01/28 05:00:42;;;;;;;;;61.75;48.50;;;;;8.12;76.63;103105.56;5096835;27;45823;-75
2022/01/28 05:23:19;;;;;;;;;57.75;45.25;;;;;7.95;75.87;103081.22;5116033;27;45355;-77
2022/01/28 05:27:27;;;;;;;;;58.75;43.75;;;;;8.26;75.68;103135.88;5111650;27;45647;-73
2022/01/28 05:29:54;;;;;;;;;59.00;43.00;;;;;8.03;76.02;103098.16;5088199;27;45487;-78
2022/01/28 05:32:21;;;;;;;;;64.50;48.75;;;;;8.05;75.79;103114.78;5099097;27;46589;-78
2022/01/28 05:34:47;;;;;;;;;62.75;45.00;;;;;8.15;75.80;103139.63;5086377;27;45870;-74
2022/01/28 05:37:14;;;;;;;;;68.75;52.75;;;;;7.85;75.16;103107.66;5094678;27;45498;-78
2022/01/28 05:39:39;;;;;;;;;67.00;51.75;;;;;7.91;75.54;103151.44;5088373;27;45419;-77
2022/01/28 05:42:05;;;;;;;;;70.75;53.00;;;;;6.99;75.69;103027.56;5098229;27;45319;-76
2022/01/28 05:44:31;;;;;;;;;69.50;50.75;;;;;6.89;75.46;103014.88;5077177;27;45696;-74
2022/01/28 05:47:01;;;;;;;;;64.00;49.75;;;;;7.43;75.98;103123.78;5091869;27;45322;-74
2022/01/28 05:49:27;;;;;;;;;65.25;49.25;;;;;6.98;76.02;103052.75;5094533;27;45508;-76
2022/01/28 05:51:53;;;;;;;;;68.25;51.50;;;;;7.42;76.09;103148.03;5092981;27;46228;-69
2022/01/28 05:54:18;;;;;;;;;59.00;47.00;;;;;7.47;76.35;103166.53;5093083;27;45405;-69
2022/01/28 05:56:44;;;;;;;;;66.50;48.75;;;;;7.10;76.33;103104.63;5093316;27;45421;-71
2022/01/28 05:59:10;;;;;;;;;64.00;48.50;;;;;7.40;76.30;103170.56;5093880;27;45605;-67
2022/01/28 06:01:36;;;;;;;;;65.00;49.00;;;;;7.06;75.88;103102.66;5100148;27;45966;-75
2022/01/28 06:04:01;;;;;;;;;59.00;47.00;;;;;7.28;76.14;103166.38;5096470;27;45301;-75
2022/01/28 06:06:27;;;;;;;;;67.00;50.25;;;;;7.26;76.76;103201.88;5096976;27;45311;-73
2022/01/28 06:08:55;;;;;;;;;59.25;46.00;;;;;6.86;76.76;103151.06;5097860;27;45526;-68
2022/01/28 06:11:22;;;;;;;;;60.25;47.00;;;;;6.68;77.05;103121.38;5099440;27;46394;-69
2022/01/28 06:13:48;;;;;;;;;63.50;48.00;;;;;6.60;77.25;103115.75;5102858;27;45579;-67
2022/01/28 06:16:16;;;;;;;;;65.50;47.50;;;;;7.01;77.68;103206.63;5101267;27;45509;-69
2022/01/28 06:18:42;;;;;;;;;64.00;46.75;;;;;6.54;77.25;103120.59;5101145;27;45382;-68
2022/01/28 06:21:08;;;;;;;;;64.25;48.50;;;;;5.97;77.57;103026.28;5097837;27;46920;-73
2022/01/28 06:23:34;;;;;;;;;60.50;46.75;;;;;6.93;77.75;103199.22;5120509;27;45184;-77
2022/01/28 06:26:00;;;;;;;;;67.75;51.00;;;;;6.76;78.52;103193.94;5120148;27;45292;-76
2022/01/28 06:28:26;;;;;;;;;68.75;51.25;;;;;6.59;78.40;103158.22;5118098;27;45502;-78
2022/01/28 06:30:52;;;;;;;;;66.00;49.75;;;;;6.75;78.30;103171.28;5099043;27;46765;-73
2022/01/28 06:33:18;;;;;;;;;69.00;52.75;;;;;6.83;78.36;103205.59;5109156;27;45359;-76
2022/01/28 06:35:45;;;;;;;;;66.00;47.75;;;;;6.80;79.03;103205.41;5079820;27;45485;-75
2022/01/28 06:38:11;;;;;;;;;68.50;51.25;;;;;6.29;78.02;103108.81;5101538;27;45482;-79
2022/01/28 06:40:37;;;;;;;;;63.00;48.00;;;;;6.45;78.72;103128.78;5099017;27;47848;-78
2022/01/28 06:43:04;;;;;;;;;59.75;45.75;;;;;6.88;78.71;103198.03;5113136;27;45354;-74
2022/01/28 06:45:29;;;;;;;;;60.75;47.50;;;;;6.79;78.62;103178.47;5117814;27;45470;-70
2022/01/28 06:47:55;;;;;;;;;66.00;50.50;;;;;6.54;78.78;103125.81;5111981;27;45567;-69
2022/01/28 06:50:21;;;;;;;;;66.50;48.00;;;;;6.99;78.51;103196.94;5121058;27;46220;-70
2022/01/28 06:52:46;;;;;;;;;63.25;47.00;;;;;6.33;77.75;103086.44;5102202;27;45879;-73
2022/01/28 06:55:14;;;;;;;;;66.50;51.25;;;;;7.07;77.65;103213.91;5101555;27;45497;-72
2022/01/28 06:57:40;;;;;;;;;66.25;48.50;;;;;7.02;78.31;103204.91;5117776;27;45541;-77
2022/01/28 07:00:08;;;;;;;;;65.25;50.75;;;;;6.57;78.25;103145.13;5117412;27;45734;-74
2022/01/28 07:02:33;;;;;;;;;68.25;50.25;;;;;6.41;78.02;103110.28;5115930;27;45867;-71
2022/01/28 07:04:59;;;;;;;;;65.75;47.75;;;;;6.85;78.10;103206.56;5117903;27;45592;-77
2022/01/28 07:07:26;;;;;;;;;64.25;48.25;;;;;7.00;78.12;103227.41;5115141;27;45490;-76
2022/01/28 07:09:53;;;;;;;;;69.00;49.25;;;;;6.71;78.31;103174.53;5099052;27;47094;-73
2022/01/28 07:12:19;;;;;;;;;70.00;53.00;;;;;6.99;78.61;103215.19;5097923;27;45554;-78
2022/01/28 07:14:45;;;;;;;;;64.25;48.75;;;;;6.75;78.32;103173.91;5116499;27;45373;-71
2022/01/28 07:17:10;;;;;;;;;59.75;46.75;;;;;6.81;78.53;103183.78;5097858;27;45503;-73
2022/01/28 07:19:37;;;;;;;;;69.25;51.00;;;;;6.99;77.88;103210.84;5096860;27;46892;-76
2022/01/28 07:22:03;;;;;;;;;63.50;48.00;;;;;6.64;78.51;103161.97;5099106;27;45719;-74
2022/01/28 07:24:29;;;;;;;;;73.50;54.00;;;;;6.78;78.43;103174.06;5120309;27;45494;-68
2022/01/28 07:26:55;;;;;;;;;69.00;53.25;;;;;7.01;78.44;103231.78;5098835;27;45472;-77
2022/01/28 07:29:22;;;;;;;;;64.25;48.25;;;;;6.57;78.25;103154.63;5115547;27;46298;-75
2022/01/28 07:31:48;;;;;;;;;66.00;50.00;;;;;6.93;78.41;103214.84;5101005;27;45482;-76
2022/01/28 07:34:14;;;;;;;;;65.50;50.00;;;;;6.69;78.50;103175.25;5119792;27;45646;-76
2022/01/28 07:36:40;;;;;;;;;68.25;49.25;;;;;7.13;78.28;103240.28;5111476;27;45406;-79
2022/01/28 07:39:07;;;;;;;;;64.75;48.75;;;;;7.19;78.31;103243.25;5116695;27;45672;-72
2022/01/28 07:41:37;;;;;;;;;66.00;49.00;;;;;6.72;77.82;103155.50;5103463;27;45324;-78
2022/01/28 07:44:03;;;;;;;;;70.00;52.25;;;;;7.32;77.36;103249.16;5099822;27;45542;-82
2022/01/28 07:46:29;;;;;;;;;64.75;50.25;;;;;7.28;77.71;103263.72;5100674;27;46158;-77
2022/01/28 07:48:55;;;;;;;;;65.25;49.50;;;;;7.29;77.32;103254.22;5114052;27;46445;-80
2022/01/28 07:51:21;;;;;;;;;69.50;50.25;;;;;6.78;77.10;103171.47;5095833;27;45516;-80
2022/01/28 07:53:47;;;;;;;;;69.00;49.25;;;;;7.14;77.71;103231.69;5105391;27;45529;-81
2022/01/28 07:56:14;;;;;;;;;62.25;48.25;;;;;6.59;77.47;103153.88;5113006;27;45639;-79
2022/01/28 07:58:42;;;;;;;;;63.75;47.00;;;;;7.04;77.39;103199.78;5103660;27;46109;-76
2022/01/28 08:01:08;;;;;;;;;67.50;52.50;;;;;7.23;77.14;103228.69;5099925;27;45476;-75
2022/01/28 08:03:34;;;;;;;;;67.00;47.25;;;;;7.43;77.33;103255.88;5079161;27;45576;-77
2022/01/28 08:05:59;;;;;;;;;65.25;48.00;;;;;7.17;76.78;103194.47;5076645;27;45496;-78
2022/01/28 08:08:25;;;;;;;;;66.00;48.75;;;;;7.69;76.79;103288.59;5094715;27;45519;-77
2022/01/28 08:10:51;;;;;;;;;62.75;48.00;;;;;7.72;76.26;103283.53;5095281;27;45446;-77
2022/01/28 08:13:17;;;;;;;;;66.50;49.50;;;;;7.78;75.86;103293.41;5095206;27;45585;-78
2022/01/28 08:15:43;;;;;;;;;65.50;49.00;;;;;7.81;76.05;103288.38;5099986;27;45362;-79
2022/01/28 08:18:09;;;;;;;;;63.00;47.25;;;;;7.66;75.87;103251.88;5097569;27;45508;-80
2022/01/28 08:20:35;;;;;;;;;56.75;46.75;;;;;7.39;75.93;103192.22;5094542;27;45487;-76
2022/01/28 08:23:02;;;;;;;;;67.50;48.75;;;;;7.05;75.65;103128.63;5094295;27;45311;-73
2022/01/28 08:25:29;;;;;;;;;60.75;44.25;;;;;7.94;75.22;103269.03;5105362;27;45438;-79
2022/01/28 08:27:55;;;;;;;;;55.75;42.50;;;;;8.07;75.30;103282.81;5106178;27;45486;-78
2022/01/28 08:30:23;;;;;;;;;61.00;45.50;;;;;7.91;74.38;103238.47;5097240;27;45608;-78
2022/01/28 08:32:50;;;;;;;;;56.25;43.00;;;;;8.28;74.52;103290.91;5103539;27;45837;-80
2022/01/28 08:35:18;;;;;;;;;54.75;42.00;;;;;8.28;74.31;103280.44;5097082;27;45392;-78
2022/01/28 08:37:44;;;;;;;;;60.75;45.50;;;;;8.10;74.04;103239.44;5078133;27;47805;-80
2022/01/28 08:40:12;;;;;;;;;59.25;44.00;;;;;8.15;73.80;103238.84;5093593;27;45397;-76
2022/01/28 08:42:38;;;;;;;;;58.00;44.00;;;;;8.66;73.35;103323.34;5117293;27;45434;-75
2022/01/28 08:45:05;;;;;;;;;57.50;43.75;;;;;8.78;73.11;103319.53;5116470;27;45716;-79
2022/01/28 08:47:31;;;;;;;;;58.00;43.50;;;;;8.64;72.38;103228.31;5117631;27;45379;-79
2022/01/28 08:49:57;;;;;;;;;54.50;41.25;;;;;9.15;71.36;103256.91;5117211;27;45602;-73
2022/01/28 08:52:23;;;;;;;;;58.50;44.50;;;;;9.04;70.83;103259.03;5098013;27;45661;-77
2022/01/28 08:54:49;;;;;;;;;50.25;40.75;;;;;9.16;71.12;103274.41;5115698;27;45481;-75
2022/01/28 08:57:15;;;;;;;;;54.00;41.75;;;;;9.25;70.71;103300.09;5099269;27;45465;-79
2022/01/28 08:59:42;;;;;;;;;55.50;43.50;;;;;9.04;71.07;103279.94;5111137;27;45418;-76
2022/01/28 09:02:09;;;;;;;;;58.75;42.50;;;;;8.92;71.05;103253.19;5098929;27;45631;-76
2022/01/28 09:04:35;;;;;;;;;51.25;40.25;;;;;9.41;70.60;103293.91;5108010;27;45705;-72
2022/01/28 09:07:00;;;;;;;;;60.75;44.00;;;;;9.93;69.27;103349.56;5116961;27;45382;-67
2022/01/28 09:09:26;;;;;;;;;54.50;43.25;;;;;9.51;69.15;103283.03;5115339;27;45336;-68
2022/01/28 09:12:19;;;;;;;;;59.00;46.50;;;;;9.95;68.89;103347.03;5117414;27;45828;-75
2022/01/28 09:14:46;;;;;;;;;56.25;43.00;;;;;9.85;69.07;103337.88;5117017;27;45389;-78
2022/01/28 09:17:12;;;;;;;;;53.00;41.25;;;;;9.45;69.16;103274.91;5085852;27;47757;-70
2022/01/28 09:19:38;;;;;;;;;50.75;38.50;;;;;9.60;68.86;103296.56;5101635;27;45392;-70
2022/01/28 09:22:04;;;;;;;;;52.00;41.75;;;;;9.29;68.49;103228.81;5118370;27;45533;-71
2022/01/28 09:24:30;;;;;;;;;52.75;37.75;;;;;10.50;67.47;103344.31;5096088;27;45660;-70
2022/01/28 09:26:55;;;;;;;;;47.50;34.00;;;;;10.70;65.09;103341.66;5093803;27;45677;-76
2022/01/28 09:29:22;;;;;;;;;42.75;33.50;;;;;10.67;65.45;103344.16;5094272;27;45356;-71
2022/01/28 09:31:49;;;;;;;;;41.50;31.75;;;;;9.86;65.23;103221.84;5102972;27;45538;-71
2022/01/28 09:34:15;;;;;;;;;41.00;30.75;;;;;10.19;65.05;103287.91;5111474;27;45389;-72
2022/01/28 09:36:40;;;;;;;;;35.75;32.00;;;;;10.50;64.30;103343.41;5117109;27;45350;-70
2022/01/28 09:39:07;;;;;;;;;44.00;31.75;;;;;10.17;64.78;103313.13;5117894;27;45321;-71
2022/01/28 09:41:35;;;;;;;;;36.25;32.00;;;;;10.43;64.46;103354.47;5117469;27;45441;-73
2022/01/28 09:44:02;;;;;;;;;40.75;30.50;;;;;10.23;64.77;103315.16;5099039;27;45472;-73
2022/01/28 09:46:28;;;;;;;;;36.75;30.25;;;;;10.55;64.04;103347.13;5116122;27;45380;-69
2022/01/28 09:48:56;;;;;;;;;40.50;32.00;;;;;10.42;64.67;103336.94;5114872;27;45487;-77
2022/01/28 09:51:21;;;;;;;;;37.25;29.50;;;;;10.08;63.88;103286.53;5099621;27;45328;-79
2022/01/28 09:53:47;;;;;;;;;36.75;27.00;;;;;10.47;64.28;103351.16;5100028;27;45515;-79
2022/01/28 09:56:13;;;;;;;;;33.50;29.75;;;;;10.53;63.81;103354.03;5103075;27;45935;-70
2022/01/28 09:58:39;;;;;;;;;31.50;25.75;;;;;10.47;63.40;103346.81;5112250;27;45476;-70
2022/01/28 10:01:04;;;;;;;;;35.00;29.00;;;;;9.85;63.04;103251.47;5113803;27;45502;-67
2022/01/28 10:03:30;;;;;;;;;34.00;25.25;;;;;10.27;64.04;103326.63;5113382;27;45454;-69
2022/01/28 10:05:57;;;;;;;;;38.50;31.00;;;;;9.90;63.10;103265.66;5112427;27;46249;-70
2022/01/28 10:08:25;;;;;;;;;32.75;27.75;;;;;10.25;63.81;103339.69;5108642;27;45499;-71
2022/01/28 10:11:02;;;;;;;;;35.50;26.75;;;;;9.87;63.77;103282.94;5115157;27;45504;-70
2022/01/28 10:16:10;;;;;;;;;43.00;30.25;;;;;10.28;63.62;103380.84;5111523;27;46022;-73
2022/01/28 10:18:35;;;;;;;;;43.75;32.00;;;;;10.21;64.33;103363.94;5096303;27;45533;-76
2022/01/28 10:21:01;;;;;;;;;29.25;27.25;;;;;10.03;64.70;103343.03;5116913;27;45455;-73
2022/01/28 10:23:27;;;;;;;;;37.25;30.00;;;;;9.50;64.39;103258.59;5109722;27;45673;-79
2022/01/28 10:26:01;;;;;;;;;39.00;30.00;;;;;10.10;64.59;103362.53;5112808;27;45447;-74
2022/01/28 10:28:27;;;;;;;;;35.75;28.75;;;;;9.92;64.62;103342.56;5106873;27;45550;-83
2022/01/28 10:30:52;;;;;;;;;43.00;31.75;;;;;9.47;64.82;103281.13;5120118;27;45506;-80
2022/01/28 10:33:22;;;;;;;;;36.25;29.00;;;;;10.03;64.57;103366.59;5120533;27;45379;-73
2022/01/28 10:35:59;;;;;;;;;38.75;30.00;;;;;9.90;63.92;103351.16;5118555;27;46618;-73
2022/01/28 10:38:35;;;;;;;;;35.25;28.25;;;;;9.92;64.52;103352.13;5116515;27;45260;-70
2022/01/28 10:41:14;;;;;;;;;28.50;22.25;;;;;10.07;64.42;103372.91;5113576;27;45485;-72
2022/01/28 10:43:53;;;;;;;;;31.75;27.75;;;;;10.08;64.16;103375.56;5101384;27;45502;-71
2022/01/28 10:46:29;;;;;;;;;34.25;29.50;;;;;10.07;63.57;103381.63;5107115;27;46355;-79
2022/01/28 10:49:05;;;;;;;;;31.75;27.75;;;;;10.05;64.42;103388.53;5082452;27;45648;-74
2022/01/28 10:51:43;;;;;;;;;36.00;29.75;;;;;9.95;64.17;103370.59;5093263;27;45586;-75
2022/01/28 10:54:14;;;;;;;;;39.50;30.75;;;;;10.02;64.36;103385.78;5104865;27;45405;-78
2022/01/28 10:56:55;;;;;;;;;32.50;27.75;;;;;9.53;64.18;103304.94;5110354;27;46200;-78
2022/01/28 10:59:27;;;;;;;;;36.00;30.00;;;;;9.89;64.24;103365.06;5105831;27;45427;-74
2022/01/28 11:01:54;;;;;;;;;30.50;26.50;;;;;10.07;64.52;103402.59;5109790;27;45668;-73
2022/01/28 11:04:20;;;;;;;;;36.50;28.50;;;;;10.09;64.24;103405.28;5107623;27;45553;-80
2022/01/28 11:06:48;;;;;;;;;33.25;26.25;;;;;9.93;64.19;103374.88;5092355;27;47662;-77
2022/01/28 11:09:16;;;;;;;;;29.00;27.25;;;;;10.04;64.17;103393.72;5104600;27;45907;-69
2022/01/28 11:11:42;;;;;;;;;24.75;22.50;;;;;10.05;64.13;103399.00;5102730;27;45495;-76
2022/01/28 11:14:09;;;;;;;;;27.75;21.00;;;;;9.54;63.75;103315.47;5110329;27;45538;-78
2022/01/28 11:16:35;;;;;;;;;23.50;21.50;;;;;9.73;63.93;103337.28;5105445;27;45546;-78
2022/01/28 11:19:09;;;;;;;;;25.50;23.50;;;;;10.04;64.10;103391.09;5096993;27;45512;-79
2022/01/28 11:21:46;;;;;;;;;32.75;27.00;;;;;10.05;63.70;103398.09;5108041;27;45688;-77
2022/01/28 11:24:59;;;;;;;;;34.25;25.75;;;;;10.05;63.57;103392.88;5106199;27;45623;-80
2022/01/28 11:27:31;;;;;;;;;27.25;25.00;;;;;10.04;63.06;103393.72;5100513;27;45493;-70
2022/01/28 11:30:19;;;;;;;;;29.75;25.25;;;;;10.01;62.57;103377.84;5114349;27;45439;-70
2022/01/28 11:33:04;;;;;;;;;28.00;23.00;;;;;9.98;63.16;103382.09;5113657;27;45567;-72
2022/01/28 11:35:34;;;;;;;;;31.75;24.50;;;;;9.93;62.75;103380.09;5111068;27;45580;-80
2022/01/28 11:38:04;;;;;;;;;30.25;23.25;;;;;9.75;63.03;103365.31;5110279;27;45677;-82
2022/01/28 11:40:52;;;;;;;;;31.75;24.50;;;;;9.67;63.08;103358.81;5122085;27;45392;-75
2022/01/28 11:43:25;;;;;;;;;31.50;24.25;;;;;9.62;63.03;103343.72;5112405;27;45449;-67
2022/01/28 11:46:11;;;;;;;;;36.50;30.25;;;;;9.58;63.72;103366.22;5118467;27;45422;-69
2022/01/28 11:48:54;;;;;;;;;28.75;24.25;;;;;9.47;63.73;103360.50;5092313;27;45618;-70
2022/01/28 11:51:35;;;;;;;;;31.25;23.00;;;;;9.33;63.96;103335.38;5103730;27;46122;-70
2022/01/28 11:54:05;;;;;;;;;26.25;24.50;;;;;9.35;64.26;103349.44;5114151;27;45456;-70
2022/01/28 11:56:32;;;;;;;;;30.75;24.50;;;;;9.30;64.39;103338.75;5096993;27;45466;-70
2022/01/28 11:59:01;;;;;;;;;34.00;27.00;;;;;9.29;64.63;103320.34;5113226;27;45513;-72
2022/01/28 12:01:38;;;;;;;;;38.50;27.75;;;;;9.47;64.53;103343.91;5097495;27;45419;-71
2022/01/28 12:04:30;;;;;;;;;30.25;29.00;;;;;9.46;64.33;103347.31;5110157;27;45371;-69
2022/01/28 12:07:15;;;;;;;;;30.25;27.50;;;;;9.47;64.29;103338.66;5096161;27;45661;-79
2022/01/28 12:09:47;;;;;;;;;27.75;23.50;;;;;9.28;64.64;103293.31;5111846;27;46710;-72
2022/01/28 12:12:20;;;;;;;;;29.25;24.00;;;;;9.28;64.18;103288.09;5106617;27;45585;-73
2022/01/28 12:15:00;;;;;;;;;31.75;24.00;;;;;9.49;64.25;103324.84;5113156;27;45545;-74
2022/01/28 12:17:33;;;;;;;;;24.25;18.25;;;;;9.58;64.10;103311.28;5112579;27;45411;-75
2022/01/28 12:20:19;;;;;;;;;26.00;21.50;;;;;9.62;64.04;103321.06;5117385;27;46612;-72
2022/01/28 12:23:25;;;;;;;;;30.50;23.00;;;;;9.52;63.84;103305.78;5099101;27;45594;-75
2022/01/28 12:25:54;;;;;;;;;19.50;17.50;;;;;9.62;64.46;103299.25;5114607;27;45380;-70
2022/01/28 12:28:42;;;;;;;;;24.25;23.50;;;;;9.56;64.26;103276.28;5109956;27;45539;-71
2022/01/28 12:31:26;;;;;;;;;20.25;17.25;;;;;9.85;64.88;103295.97;5113708;27;45411;-72
2022/01/28 12:34:02;;;;;;;;;27.75;25.25;;;;;9.96;63.87;103283.38;5114063;27;45435;-76
2022/01/28 12:36:31;;;;;;;;;32.25;23.25;;;;;9.98;62.51;103276.47;5114625;27;45464;-74
2022/01/28 12:41:48;;;;;;;;;23.75;19.25;;;;;9.65;61.80;103211.31;5116529;27;45952;-73
2022/01/28 12:44:15;;;;;;;;;25.00;21.00;;;;;9.98;62.33;103281.72;5116326;27;45517;-71
2022/01/28 12:46:55;;;;;;;;;26.50;22.00;;;;;9.71;62.49;103237.75;5109277;27;45316;-69
2022/01/28 12:49:25;;;;;;;;;29.25;21.75;;;;;9.71;62.78;103232.53;5096351;27;45510;-68
2022/01/28 12:51:57;;;;;;;;;27.75;20.00;;;;;10.10;62.58;103312.78;5109568;27;46317;-72
2022/01/28 12:54:35;;;;;;;;;30.50;23.25;;;;;9.97;62.20;103286.06;5110891;27;45521;-71
2022/01/28 12:57:01;;;;;;;;;24.75;19.50;;;;;10.05;64.25;103295.97;5112906;27;45923;-67
2022/01/28 12:59:27;;;;;;;;;26.00;23.25;;;;;9.76;62.22;103241.47;5108782;27;45625;-67
2022/01/28 13:01:54;;;;;;;;;24.25;21.25;;;;;10.05;61.88;103295.97;5113273;27;45966;-69
2022/01/28 13:04:23;;;;;;;;;26.75;22.25;;;;;9.94;61.45;103298.09;5114782;27;45911;-70
2022/01/28 13:09:24;;;;;;;;;28.75;23.25;;;;;9.69;62.17;103270.81;5108721;27;45375;-71